Time;durP1;ratioP1;P1;durP2;ratioP2;P2;SDS_P1;SDS_P2;PMS_P1;PMS_P2;Temp;Humidity;BMP_temperature;BMP_pressure;BME280_temperature;BME280_humidity;BME280_pressure;Samples;Min_cycle;Max_cycle;Signal;HPM_P1;HPM_P2
2022/05/16 00:00:32;;;;;;;16.48;7.72;;;21.90;48.00;;;;;;5063873;28;20075;-59
2022/05/16 00:03:02;;;;;;;10.80;5.85;;;22.00;48.00;;;;;;5061923;28;20414;-60
2022/05/16 00:05:28;;;;;;;15.80;5.57;;;21.90;48.10;;;;;;5041435;28;20040;-56
2022/05/16 00:07:53;;;;;;;13.88;5.90;;;21.90;48.00;;;;;;5063695;28;20031;-61
2022/05/16 00:10:19;;;;;;;13.20;5.88;;;21.90;47.90;;;;;;5062098;28;20099;-61
2022/05/16 00:12:46;;;;;;;13.90;6.68;;;21.90;47.80;;;;;;5066350;28;20035;-59
2022/05/16 00:15:14;;;;;;;10.98;4.88;;;21.90;47.70;;;;;;5066460;28;20020;-60
2022/05/16 00:17:40;;;;;;;10.68;4.82;;;21.90;47.60;;;;;;5059275;28;20025;-59
2022/05/16 00:20:06;;;;;;;10.85;4.30;;;21.90;47.60;;;;;;5068410;28;20036;-59
2022/05/16 00:22:32;;;;;;;13.77;6.13;;;21.80;47.70;;;;;;5061142;28;20029;-60
2022/05/16 00:24:58;;;;;;;9.00;4.22;;;21.70;47.70;;;;;;5060739;28;20016;-60
2022/05/16 00:27:24;;;;;;;10.35;4.50;;;21.70;47.70;;;;;;5068299;28;20028;-60
2022/05/16 00:29:49;;;;;;;11.93;5.03;;;21.70;47.70;;;;;;5050890;28;20856;-60
2022/05/16 00:32:17;;;;;;;8.45;4.57;;;21.70;47.80;;;;;;5047640;28;20474;-61
2022/05/16 00:34:43;;;;;;;18.25;5.72;;;21.60;47.90;;;;;;5066787;28;20032;-60
2022/05/16 00:37:08;;;;;;;10.13;5.25;;;21.60;47.90;;;;;;5061874;28;20078;-61
2022/05/16 00:39:34;;;;;;;10.65;5.22;;;21.60;48.00;;;;;;5064747;28;20539;-61
2022/05/16 00:42:01;;;;;;;13.10;4.70;;;21.60;48.10;;;;;;5065185;28;20032;-60
2022/05/16 00:44:27;;;;;;;12.40;4.53;;;21.60;48.20;;;;;;5059086;28;20041;-57
2022/05/16 00:46:53;;;;;;;14.57;5.68;;;21.60;48.20;;;;;;5067883;28;20025;-60
2022/05/16 00:49:31;;;;;;;12.65;4.28;;;21.50;48.30;;;;;;5070157;28;20385;-60
2022/05/16 00:52:07;;;;;;;13.32;5.10;;;21.50;48.50;;;;;;5066609;28;20017;-60
2022/05/16 00:54:38;;;;;;;9.88;4.50;;;21.50;48.60;;;;;;5065019;28;20086;-61
2022/05/16 00:57:08;;;;;;;8.25;4.30;;;21.50;48.60;;;;;;5065734;28;20017;-60
2022/05/16 00:59:38;;;;;;;11.65;4.68;;;21.40;48.80;;;;;;5065194;28;20028;-58
2022/05/16 01:04:48;;;;;;;14.77;5.20;;;21.30;49.10;;;;;;5056975;28;20565;-60
2022/05/16 01:07:23;;;;;;;8.32;4.72;;;21.30;49.30;;;;;;5063863;28;20025;-60
2022/05/16 01:09:49;;;;;;;17.63;4.72;;;21.20;49.40;;;;;;5068471;28;20021;-60
2022/05/16 01:12:15;;;;;;;11.77;4.88;;;21.20;49.50;;;;;;5065138;28;20028;-60
2022/05/16 01:14:54;;;;;;;10.70;4.97;;;21.20;49.50;;;;;;5062271;28;20058;-58
2022/05/16 01:17:20;;;;;;;11.02;5.07;;;21.20;49.60;;;;;;5063415;28;20086;-60
2022/05/16 01:19:46;;;;;;;11.32;5.30;;;21.10;49.60;;;;;;5068188;28;20032;-60
2022/05/16 01:22:24;;;;;;;16.33;5.13;;;21.10;49.60;;;;;;5068742;28;20032;-59
2022/05/16 01:24:52;;;;;;;10.35;4.90;;;21.10;49.60;;;;;;5062064;28;20028;-59
2022/05/16 01:27:18;;;;;;;9.38;4.90;;;21.10;49.50;;;;;;5041200;28;20029;-60
2022/05/16 01:29:44;;;;;;;8.90;4.50;;;21.10;49.30;;;;;;5066791;28;20036;-59
2022/05/16 01:32:10;;;;;;;9.63;4.68;;;21.10;49.20;;;;;;5065681;28;20024;-60
2022/05/16 01:34:37;;;;;;;11.05;4.85;;;21.00;49.20;;;;;;5065981;28;20055;-59
2022/05/16 01:37:03;;;;;;;19.00;5.35;;;21.00;49.20;;;;;;5064479;28;20033;-61
2022/05/16 01:39:28;;;;;;;11.18;5.03;;;21.00;49.30;;;;;;5066060;28;20447;-56
2022/05/16 01:41:54;;;;;;;13.57;5.00;;;21.00;49.30;;;;;;5067270;28;20363;-59
2022/05/16 01:44:20;;;;;;;9.27;4.68;;;21.00;49.20;;;;;;5081150;28;20497;-58
2022/05/16 01:46:45;;;;;;;7.13;4.38;;;21.00;49.00;;;;;;5083468;28;20127;-61
2022/05/16 01:49:11;;;;;;;13.82;4.95;;;21.00;49.00;;;;;;5089812;28;20024;-60
2022/05/16 01:51:38;;;;;;;13.27;4.68;;;20.90;49.00;;;;;;5083742;28;20032;-58
2022/05/16 01:54:04;;;;;;;10.27;4.07;;;20.80;49.10;;;;;;5087932;28;20552;-58
2022/05/16 01:56:35;;;;;;;11.88;4.07;;;20.90;48.90;;;;;;5087458;28;20032;-58
2022/05/16 01:59:03;;;;;;;12.23;4.18;;;20.80;49.00;;;;;;5091014;28;20020;-60
2022/05/16 02:01:29;;;;;;;11.05;4.10;;;20.80;48.90;;;;;;5086767;28;20029;-56
2022/05/16 02:03:55;;;;;;;9.05;4.47;;;20.70;49.10;;;;;;5087212;28;20020;-59
2022/05/16 02:06:20;;;;;;;10.75;4.40;;;20.70;49.00;;;;;;5068680;28;20032;-58
2022/05/16 02:08:50;;;;;;;8.48;4.28;;;20.70;49.10;;;;;;5064518;28;20907;-60
2022/05/16 02:11:16;;;;;;;9.63;4.15;;;20.70;49.00;;;;;;5087670;28;20039;-59
2022/05/16 02:13:43;;;;;;;14.40;4.63;;;20.70;49.10;;;;;;5090663;28;20080;-59
2022/05/16 02:16:09;;;;;;;12.52;4.43;;;20.70;49.10;;;;;;5092386;28;20162;-61
2022/05/16 02:18:36;;;;;;;11.65;4.68;;;20.60;49.20;;;;;;5089757;28;20059;-59
2022/05/16 02:26:30;;;;;;;10.00;4.63;;;20.50;49.40;;;;;;5081021;28;20073;-56
2022/05/16 02:28:56;;;;;;;7.90;4.40;;;20.50;49.50;;;;;;5091348;28;20024;-59
2022/05/16 02:31:22;;;;;;;12.10;4.65;;;20.50;49.70;;;;;;5091779;28;20123;-59
2022/05/16 02:33:48;;;;;;;11.73;4.60;;;20.50;49.80;;;;;;5061541;28;20055;-57
2022/05/16 02:36:14;;;;;;;10.43;4.30;;;20.40;49.90;;;;;;5087986;28;20330;-58
2022/05/16 02:38:40;;;;;;;9.02;4.75;;;20.30;50.00;;;;;;5085659;28;20124;-59
2022/05/16 02:41:06;;;;;;;11.68;4.25;;;20.40;50.80;;;;;;5065130;28;20020;-60
2022/05/16 02:43:32;;;;;;;10.32;4.20;;;20.40;50.10;;;;;;5091627;28;20044;-60
2022/05/16 02:45:58;;;;;;;11.57;4.57;;;20.40;50.00;;;;;;5079200;28;20021;-60
2022/05/16 02:48:24;;;;;;;10.65;4.28;;;20.40;49.90;;;;;;5079177;28;20024;-60
2022/05/16 02:50:49;;;;;;;10.68;4.65;;;20.30;49.70;;;;;;5091612;28;20673;-60
2022/05/16 02:53:15;;;;;;;11.38;4.90;;;20.30;49.50;;;;;;5072617;28;20490;-60
2022/05/16 02:55:41;;;;;;;12.00;4.80;;;20.20;49.50;;;;;;5079269;28;20095;-58
2022/05/16 02:58:08;;;;;;;13.25;4.35;;;20.20;49.50;;;;;;5062125;28;20046;-60
2022/05/16 03:00:34;;;;;;;11.70;5.00;;;20.20;49.50;;;;;;5088112;28;20028;-59
2022/05/16 03:02:59;;;;;;;9.23;4.68;;;20.20;49.50;;;;;;5084579;28;20055;-60
2022/05/16 03:05:25;;;;;;;15.77;4.00;;;20.20;49.60;;;;;;5070465;28;21718;-59
2022/05/16 03:07:51;;;;;;;9.43;4.63;;;20.10;49.70;;;;;;5070299;28;20031;-61
2022/05/16 03:10:16;;;;;;;11.80;4.53;;;20.00;49.90;;;;;;5083170;28;20136;-59
2022/05/16 03:12:45;;;;;;;10.75;5.03;;;20.00;49.80;;;;;;5085873;28;20407;-60
2022/05/16 03:15:13;;;;;;;12.82;4.60;;;20.00;49.80;;;;;;5068775;28;20358;-61
2022/05/16 03:17:39;;;;;;;12.18;4.72;;;20.10;49.90;;;;;;5082167;28;20105;-60
2022/05/16 03:20:07;;;;;;;10.73;4.80;;;20.00;49.90;;;;;;5085521;28;20162;-60
2022/05/16 03:22:33;;;;;;;8.93;4.25;;;20.00;49.80;;;;;;5081692;28;20032;-59
2022/05/16 03:24:59;;;;;;;12.68;5.10;;;20.00;49.90;;;;;;5081929;28;20072;-61
2022/05/16 03:27:25;;;;;;;10.02;4.80;;;20.00;50.10;;;;;;5059593;28;20504;-59
2022/05/16 03:29:51;;;;;;;11.68;4.55;;;20.00;50.00;;;;;;5080232;28;20013;-60
2022/05/16 03:32:16;;;;;;;12.27;4.93;;;20.00;50.00;;;;;;5064838;28;20039;-57
2022/05/16 03:34:42;;;;;;;10.43;5.03;;;20.00;50.10;;;;;;5082534;28;20021;-61
2022/05/16 03:37:08;;;;;;;11.05;4.70;;;20.00;50.00;;;;;;5083307;28;20107;-58
2022/05/16 03:42:18;;;;;;;10.32;4.80;;;20.00;49.80;;;;;;5085567;28;20038;-61
2022/05/16 03:44:43;;;;;;;14.98;4.60;;;20.10;49.70;;;;;;5082709;28;20024;-61
2022/05/16 03:47:09;;;;;;;9.40;4.57;;;20.00;49.70;;;;;;5083534;28;20108;-60
2022/05/16 03:49:35;;;;;;;8.77;4.43;;;20.00;49.70;;;;;;5090385;28;20017;-59
2022/05/16 03:52:02;;;;;;;11.45;4.63;;;20.10;49.70;;;;;;5087391;28;20028;-60
2022/05/16 03:54:27;;;;;;;13.02;5.20;;;20.10;49.50;;;;;;5058306;28;20029;-60
2022/05/16 03:56:53;;;;;;;13.23;4.60;;;20.10;49.60;;;;;;5080762;28;20085;-60
2022/05/16 03:59:19;;;;;;;10.20;4.53;;;20.10;49.50;;;;;;5089856;28;20048;-60
2022/05/16 04:01:45;;;;;;;10.85;4.40;;;20.10;49.60;;;;;;5090312;28;20030;-59
2022/05/16 04:04:11;;;;;;;12.38;4.53;;;20.20;49.50;;;;;;5067835;28;20423;-60
2022/05/16 04:06:38;;;;;;;13.57;4.78;;;20.30;49.30;;;;;;5087819;28;20020;-59
2022/05/16 04:09:04;;;;;;;13.00;5.03;;;20.20;49.30;;;;;;5088284;28;20020;-59
2022/05/16 04:11:30;;;;;;;10.90;5.38;;;20.30;49.30;;;;;;5079619;28;20025;-60
2022/05/16 04:13:56;;;;;;;15.25;5.47;;;20.30;49.20;;;;;;5085513;28;20020;-58
2022/05/16 04:16:22;;;;;;;15.68;5.10;;;20.40;49.10;;;;;;5090910;28;20047;-59
2022/05/16 04:18:48;;;;;;;12.85;5.22;;;20.40;49.00;;;;;;5060750;28;20469;-58
2022/05/16 04:21:14;;;;;;;11.50;4.93;;;20.40;48.90;;;;;;5087366;28;20027;-60
2022/05/16 04:23:41;;;;;;;11.88;5.00;;;20.50;48.70;;;;;;5085577;28;20561;-59
2022/05/16 04:26:06;;;;;;;19.42;5.20;;;20.50;48.70;;;;;;5084524;28;20036;-59
2022/05/16 04:28:32;;;;;;;11.55;4.75;;;20.60;48.70;;;;;;5082021;28;20036;-59
2022/05/16 04:30:58;;;;;;;15.90;5.55;;;20.50;48.70;;;;;;5079003;28;20017;-60
2022/05/16 04:33:24;;;;;;;16.52;5.85;;;20.60;48.60;;;;;;5080961;28;20407;-59
2022/05/16 04:35:49;;;;;;;16.10;5.30;;;20.70;49.10;;;;;;5087621;28;20074;-60
2022/05/16 04:38:15;;;;;;;25.10;5.78;;;20.70;48.30;;;;;;5079937;28;20024;-61
2022/05/16 04:43:25;;;;;;;38.53;6.80;;;20.80;48.00;;;;;;5084645;28;20121;-60
2022/05/16 04:45:51;;;;;;;39.28;6.97;;;20.80;48.00;;;;;;5086328;28;20032;-61
2022/05/16 04:48:17;;;;;;;42.78;6.85;;;20.80;48.10;;;;;;5088253;28;20035;-58
2022/05/16 04:50:43;;;;;;;30.95;6.60;;;20.80;48.40;;;;;;5088083;28;20031;-59
2022/05/16 04:53:08;;;;;;;44.97;7.95;;;20.90;48.10;;;;;;5083811;28;20119;-57
2022/05/16 04:55:35;;;;;;;21.58;6.15;;;20.90;47.90;;;;;;5083132;28;20143;-60
2022/05/16 04:58:00;;;;;;;28.52;7.10;;;21.00;47.90;;;;;;5083137;28;20032;-60
2022/05/16 05:00:26;;;;;;;20.35;6.78;;;21.00;48.00;;;;;;5087087;28;20032;-61
2022/05/16 05:02:52;;;;;;;24.38;6.60;;;20.90;48.20;;;;;;5067179;28;20031;-62
2022/05/16 05:05:19;;;;;;;18.23;5.57;;;21.00;48.20;;;;;;5067305;28;20020;-60
2022/05/16 05:07:46;;;;;;;13.38;5.50;;;20.90;48.20;;;;;;5089791;28;20472;-59
2022/05/16 05:15:44;;;;;;;13.15;5.82;;;21.00;48.60;;;;;;5077617;28;20074;-59
2022/05/16 05:18:10;;;;;;;19.35;5.65;;;21.10;48.70;;;;;;5090381;28;20024;-60
2022/05/16 05:23:57;;;;;;;25.80;6.57;;;21.10;48.90;;;;;;5073268;28;20043;-57
2022/05/16 05:26:22;;;;;;;;;;;21.10;48.40;;;;;;5087745;28;20500;-60
2022/05/16 05:28:48;;;;;;;21.33;6.47;;;21.30;48.20;;;;;;5070254;28;19909;-60
2022/05/16 05:31:16;;;;;;;13.50;6.55;;;21.30;48.50;;;;;;5092225;28;20035;-60
2022/05/16 05:33:43;;;;;;;26.55;7.15;;;21.40;47.50;;;;;;5078004;28;20023;-58
2022/05/16 05:36:09;;;;;;;20.77;6.72;;;21.50;47.40;;;;;;5092089;28;20537;-58
2022/05/16 05:38:38;;;;;;;18.20;6.20;;;21.50;47.00;;;;;;5087212;28;20479;-59
2022/05/16 05:41:05;;;;;;;26.80;7.47;;;21.60;47.00;;;;;;5092042;28;20032;-60
2022/05/16 05:43:31;;;;;;;19.27;5.50;;;21.60;47.10;;;;;;5093984;28;20413;-59
2022/05/16 05:45:57;;;;;;;20.75;6.55;;;21.70;46.60;;;;;;5079952;28;20115;-59
2022/05/16 05:48:23;;;;;;;18.92;5.88;;;21.80;46.60;;;;;;5091334;28;20032;-58
2022/05/16 05:50:48;;;;;;;25.70;6.32;;;21.80;46.30;;;;;;5087853;28;20028;-59
2022/05/16 05:53:14;;;;;;;24.15;6.70;;;21.90;46.30;;;;;;5091441;28;20372;-60
2022/05/16 05:55:40;;;;;;;24.30;6.05;;;22.00;45.90;;;;;;5085105;28;20028;-55
2022/05/16 05:58:06;;;;;;;56.20;7.38;;;22.20;45.60;;;;;;5092637;28;20032;-59
2022/05/16 06:00:32;;;;;;;21.13;6.32;;;22.30;45.60;;;;;;5074012;28;20107;-60
2022/05/16 06:03:00;;;;;;;31.23;6.97;;;22.40;45.20;;;;;;5069295;28;20111;-61
2022/05/16 06:05:27;;;;;;;24.13;6.22;;;22.60;44.90;;;;;;5075376;28;20024;-59
2022/05/16 06:07:53;;;;;;;40.90;7.30;;;22.60;44.70;;;;;;5074116;28;20020;-61
2022/05/16 06:10:18;;;;;;;18.40;5.28;;;22.80;44.40;;;;;;5072887;28;20070;-60
2022/05/16 06:12:44;;;;;;;41.05;7.20;;;22.80;43.40;;;;;;5093113;28;20020;-58
2022/05/16 06:15:11;;;;;;;22.52;5.72;;;22.90;43.10;;;;;;5073418;28;20072;-61
2022/05/16 06:17:37;;;;;;;45.05;6.90;;;22.80;42.90;;;;;;5082352;28;20446;-59
2022/05/16 06:20:05;;;;;;;27.23;6.18;;;22.80;43.10;;;;;;5064225;28;20103;-60
2022/05/16 06:22:34;;;;;;;33.08;6.32;;;22.90;42.70;;;;;;5081931;28;20031;-59
2022/05/16 06:27:49;;;;;;;9.18;4.47;;;22.90;41.80;;;;;;5079156;28;20034;-58
2022/05/16 06:30:17;;;;;;;11.25;4.85;;;23.00;41.50;;;;;;5087559;28;20028;-59
2022/05/16 06:32:43;;;;;;;12.88;4.50;;;23.10;41.10;;;;;;5054344;28;20060;-56
2022/05/16 06:35:09;;;;;;;14.80;4.10;;;23.10;40.80;;;;;;5088123;28;20052;-60
2022/05/16 06:37:35;;;;;;;14.82;4.68;;;23.30;40.40;;;;;;5079224;28;20082;-60
2022/05/16 06:40:01;;;;;;;38.83;6.55;;;23.50;39.80;;;;;;5068718;28;20040;-59
2022/05/16 06:42:27;;;;;;;12.73;4.70;;;23.70;39.80;;;;;;5077546;28;20037;-59
2022/05/16 06:44:53;;;;;;;12.02;4.35;;;23.80;39.30;;;;;;5088608;28;20059;-59
2022/05/16 06:47:19;;;;;;;19.13;5.40;;;24.10;38.40;;;;;;5088223;28;20567;-58
2022/05/16 06:49:44;;;;;;;17.05;5.43;;;24.30;38.70;;;;;;5081325;28;20078;-61
2022/05/16 06:52:10;;;;;;;14.05;5.10;;;25.00;38.60;;;;;;5088300;28;20119;-60
2022/05/16 06:54:36;;;;;;;11.77;5.07;;;27.70;36.20;;;;;;5085201;28;20079;-61
2022/05/16 06:57:02;;;;;;;12.13;4.50;;;32.00;31.20;;;;;;5083402;28;20030;-61
2022/05/16 06:59:27;;;;;;;13.93;4.40;;;35.50;28.00;;;;;;5078775;28;20420;-60
2022/05/16 07:01:53;;;;;;;9.05;4.65;;;37.90;26.30;;;;;;5088056;28;20090;-60
2022/05/16 07:04:19;;;;;;;9.38;4.82;;;39.50;24.80;;;;;;5084992;28;20021;-59
2022/05/16 07:06:45;;;;;;;34.53;6.47;;;41.00;24.00;;;;;;5086977;28;20097;-57
2022/05/16 07:09:10;;;;;;;11.98;4.45;;;41.90;22.70;;;;;;5073645;28;20028;-60
2022/05/16 07:11:36;;;;;;;15.52;4.78;;;42.30;22.50;;;;;;5067710;28;20020;-60
2022/05/16 07:14:02;;;;;;;15.23;4.90;;;42.90;22.50;;;;;;5081365;28;20428;-60
2022/05/16 07:16:27;;;;;;;12.68;4.82;;;44.20;22.10;;;;;;5081615;28;20016;-61
2022/05/16 07:18:54;;;;;;;12.05;4.38;;;44.80;21.70;;;;;;5071204;28;20411;-59
2022/05/16 07:21:24;;;;;;;10.40;5.03;;;45.20;21.30;;;;;;5082428;28;20054;-60
2022/05/16 07:23:49;;;;;;;15.52;5.18;;;45.80;21.00;;;;;;5082912;28;20031;-58
2022/05/16 07:28:59;;;;;;;10.13;4.80;;;47.20;20.60;;;;;;5083301;28;20170;-58
2022/05/16 07:31:25;;;;;;;14.30;5.00;;;47.70;20.50;;;;;;5069026;28;20107;-59
2022/05/16 07:33:51;;;;;;;13.75;5.18;;;47.90;20.20;;;;;;5089591;28;20024;-58
2022/05/16 07:36:17;;;;;;;11.23;5.13;;;48.10;20.20;;;;;;5088117;28;20028;-60
2022/05/16 07:38:42;;;;;;;12.98;5.35;;;48.30;20.20;;;;;;5081955;28;20161;-60
2022/05/16 07:41:09;;;;;;;11.52;5.10;;;48.60;20.10;;;;;;5082045;28;20233;-60
2022/05/16 07:43:35;;;;;;;17.70;5.10;;;48.70;19.90;;;;;;5085344;28;20060;-60
2022/05/16 07:46:03;;;;;;;10.00;4.63;;;49.00;19.90;;;;;;5067862;28;20024;-60
2022/05/16 07:48:29;;;;;;;12.93;5.55;;;49.30;19.90;;;;;;5085810;28;20031;-59
2022/05/16 07:50:55;;;;;;;11.50;5.10;;;49.70;19.80;;;;;;5065122;28;20033;-60
2022/05/16 07:53:21;;;;;;;13.43;4.93;;;49.90;19.70;;;;;;5083358;28;20024;-60
2022/05/16 07:55:51;;;;;;;12.15;5.30;;;50.00;19.70;;;;;;5060806;28;20071;-60
2022/05/16 07:58:17;;;;;;;11.55;5.25;;;50.40;19.60;;;;;;5086136;28;20032;-59
2022/05/16 08:00:43;;;;;;;16.88;5.70;;;51.10;19.50;;;;;;5060833;28;20529;-62
2022/05/16 08:03:11;;;;;;;13.25;5.32;;;51.50;19.40;;;;;;5090333;28;20032;-63
2022/05/16 08:05:36;;;;;;;9.85;5.30;;;51.60;19.30;;;;;;5091176;28;20136;-62
2022/05/16 08:10:47;;;;;;;11.23;4.97;;;52.70;19.00;;;;;;5081399;28;20073;-62
2022/05/16 08:13:14;;;;;;;18.02;6.57;;;52.90;18.80;;;;;;5080723;28;20508;-62
2022/05/16 08:15:41;;;;;;;10.77;5.40;;;52.70;18.80;;;;;;5077497;28;20020;-62
2022/05/16 08:18:10;;;;;;;10.07;5.43;;;53.10;18.80;;;;;;5069765;28;20035;-62
2022/05/16 08:20:37;;;;;;;11.82;4.85;;;54.00;18.70;;;;;;5092385;28;20024;-62
2022/05/16 08:23:04;;;;;;;12.00;5.22;;;54.40;18.60;;;;;;5086773;28;20024;-62
2022/05/16 08:25:30;;;;;;;14.55;5.30;;;54.40;18.40;;;;;;5072790;28;20110;-62
2022/05/16 08:27:56;;;;;;;13.55;5.60;;;54.30;18.30;;;;;;5084714;28;20529;-62
2022/05/16 08:30:23;;;;;;;11.93;4.75;;;54.20;18.40;;;;;;5090694;28;20024;-63
2022/05/16 08:32:50;;;;;;;12.07;4.88;;;54.40;18.40;;;;;;5085570;28;20032;-63
2022/05/16 08:35:18;;;;;;;9.82;5.15;;;54.50;18.30;;;;;;5069608;28;20046;-64
2022/05/16 08:40:48;;;;;;;14.57;5.20;;;54.50;18.20;;;;;;5083541;28;20081;-62
2022/05/16 08:43:16;;;;;;;12.10;5.18;;;54.40;18.40;;;;;;5048457;28;20124;-62
2022/05/16 08:45:48;;;;;;;10.52;5.47;;;54.10;18.30;;;;;;5058053;28;20055;-62
2022/05/16 08:48:36;;;;;;;12.57;5.38;;;53.80;18.30;;;;;;5069527;28;20598;-63
2022/05/16 08:51:24;;;;;;;9.90;5.03;;;53.30;18.60;;;;;;5069601;28;20033;-63
2022/05/16 08:54:05;;;;;;;12.10;4.55;;;53.00;18.60;;;;;;5068510;28;20090;-63
2022/05/16 08:56:35;;;;;;;14.13;4.70;;;51.40;18.80;;;;;;5066389;28;20102;-62
2022/05/16 08:59:09;;;;;;;16.13;5.85;;;51.00;18.80;;;;;;5061407;28;20033;-61
2022/05/16 09:01:40;;;;;;;13.30;5.07;;;50.90;18.90;;;;;;5058443;28;21150;-62
2022/05/16 09:04:26;;;;;;;17.52;5.22;;;50.30;19.50;;;;;;5034098;28;20497;-61
2022/05/16 09:07:16;;;;;;;14.43;4.63;;;49.70;19.20;;;;;;5061332;28;20033;-62
2022/05/16 09:10:03;;;;;;;11.77;3.72;;;48.90;19.20;;;;;;5065441;28;20111;-63
2022/05/16 09:12:46;;;;;;;11.13;3.58;;;47.20;19.20;;;;;;5060377;28;20446;-63
2022/05/16 09:15:26;;;;;;;13.27;4.43;;;43.60;20.60;;;;;;5065716;28;20020;-61
2022/05/16 09:18:03;;;;;;;16.40;4.50;;;40.60;21.70;;;;;;5050584;28;20037;-61
2022/05/16 09:20:54;;;;;;;12.73;3.33;;;38.50;22.90;;;;;;5061631;28;20077;-61
2022/05/16 09:23:58;;;;;;;12.98;4.38;;;36.50;23.90;;;;;;5068424;28;20025;-63
2022/05/16 09:26:29;;;;;;;;;;;35.10;24.80;;;;;;5058486;28;20036;-62
2022/05/16 09:29:12;;;;;;;17.15;4.40;;;34.20;25.50;;;;;;5039593;28;20345;-60
2022/05/16 09:31:42;;;;;;;12.52;3.92;;;33.20;26.10;;;;;;5037356;28;20478;-64
2022/05/16 09:34:09;;;;;;;13.00;4.05;;;32.60;26.80;;;;;;5068450;28;20033;-63
2022/05/16 09:36:38;;;;;;;11.65;4.03;;;32.00;27.10;;;;;;5064997;28;20108;-66
2022/05/16 09:39:07;;;;;;;13.02;4.45;;;31.50;27.50;;;;;;5037975;28;20385;-67
2022/05/16 09:41:46;;;;;;;11.63;3.95;;;30.90;27.80;;;;;;5050642;28;20033;-67
2022/05/16 09:47:38;;;;;;;9.88;3.95;;;30.00;29.40;;;;;;5086760;28;20064;-68
2022/05/16 09:50:20;;;;;;;22.60;5.45;;;29.90;29.50;;;;;;5077543;28;20020;-67
2022/05/16 09:53:09;;;;;;;13.35;4.13;;;29.80;29.60;;;;;;5087220;28;20031;-70
2022/05/16 09:55:46;;;;;;;12.35;4.40;;;29.60;29.60;;;;;;5063163;28;20130;-69
2022/05/16 09:58:15;;;;;;;15.20;4.53;;;29.40;29.90;;;;;;5084289;28;20099;-69
2022/05/16 10:01:17;;;;;;;14.00;3.97;;;29.30;30.00;;;;;;5069327;28;20071;-68
2022/05/16 10:03:43;;;;;;;12.15;4.20;;;29.30;30.00;;;;;;5004468;28;20042;-65
2022/05/16 10:06:30;;;;;;;17.00;4.28;;;29.10;30.30;;;;;;4992083;28;20456;-67
2022/05/16 10:09:06;;;;;;;14.38;4.03;;;29.10;30.40;;;;;;5005086;28;20058;-69
2022/05/16 10:11:32;;;;;;;22.70;4.60;;;29.10;30.60;;;;;;5006050;28;20017;-68
2022/05/16 10:13:59;;;;;;;14.13;4.68;;;28.90;31.10;;;;;;5006266;28;20152;-63
2022/05/16 10:16:29;;;;;;;13.05;4.50;;;28.70;31.30;;;;;;5009133;28;20444;-67
2022/05/16 10:19:18;;;;;;;15.38;4.40;;;28.60;31.50;;;;;;4992122;28;20086;-68
2022/05/16 10:22:08;;;;;;;10.15;3.80;;;28.50;31.80;;;;;;4991883;28;20038;-64
2022/05/16 10:24:40;;;;;;;11.57;4.32;;;28.50;31.70;;;;;;5008619;28;20494;-67
2022/05/16 10:27:11;;;;;;;12.60;4.53;;;28.50;31.70;;;;;;5009788;28;20167;-67
2022/05/16 10:29:40;;;;;;;16.45;4.25;;;28.60;31.60;;;;;;5008450;28;20123;-67
2022/05/16 10:35:09;;;;;;;16.88;7.45;;;28.80;31.40;;;;;;5009069;28;20140;-62
2022/05/16 10:37:40;;;;;;;17.35;5.35;;;28.80;31.60;;;;;;5006752;28;20022;-68
2022/05/16 10:40:11;;;;;;;9.75;3.88;;;28.90;31.50;;;;;;5004098;28;20532;-66
2022/05/16 10:42:44;;;;;;;17.98;5.05;;;28.60;31.50;;;;;;5088431;28;20067;-65
2022/05/16 10:45:17;;;;;;;18.25;5.57;;;28.70;31.80;;;;;;5086443;28;20031;-65
2022/05/16 10:47:58;;;;;;;27.17;5.03;;;28.60;31.60;;;;;;5073554;28;20425;-66
2022/05/16 10:50:30;;;;;;;21.15;3.85;;;28.70;31.60;;;;;;5087397;28;20391;-63
2022/05/16 10:52:56;;;;;;;19.17;4.93;;;28.80;31.60;;;;;;5087036;28;20069;-67
2022/05/16 10:55:22;;;;;;;21.90;4.75;;;28.80;31.50;;;;;;5087170;28;20008;-66
2022/05/16 10:58:07;;;;;;;47.17;5.03;;;29.00;31.40;;;;;;5084036;28;20044;-65
2022/05/16 11:00:42;;;;;;;33.53;15.23;;;29.20;31.50;;;;;;5086179;28;20024;-67
2022/05/16 11:03:48;;;;;;;14.23;4.57;;;29.20;31.60;;;;;;5079790;28;20119;-66
2022/05/16 11:06:22;;;;;;;17.92;4.53;;;29.20;31.70;;;;;;5046879;28;20035;-66
2022/05/16 11:08:58;;;;;;;13.15;4.10;;;29.20;31.50;;;;;;5058606;28;20038;-66
2022/05/16 11:11:50;;;;;;;23.77;4.68;;;29.10;31.60;;;;;;5082185;28;20044;-65
2022/05/16 11:14:28;;;;;;;13.30;4.18;;;29.30;31.70;;;;;;5054831;28;20023;-65
2022/05/16 11:17:03;;;;;;;13.45;4.68;;;29.50;31.50;;;;;;5072518;28;20031;-65
2022/05/16 11:19:47;;;;;;;29.85;5.47;;;29.70;30.90;;;;;;5090570;28;20098;-65
2022/05/16 11:22:28;;;;;;;16.90;4.32;;;29.60;31.10;;;;;;5082188;28;20093;-66
2022/05/16 11:25:23;;;;;;;12.18;3.90;;;29.60;31.20;;;;;;5089111;28;20028;-65
2022/05/16 11:28:01;;;;;;;8.80;3.90;;;29.70;31.20;;;;;;5087918;28;20040;-66
2022/05/16 11:30:42;;;;;;;10.95;3.55;;;29.70;31.30;;;;;;5064850;28;20027;-65
2022/05/16 11:33:07;;;;;;;13.27;4.60;;;29.70;31.00;;;;;;5083599;28;20028;-63
2022/05/16 11:35:48;;;;;;;11.60;3.95;;;29.70;31.00;;;;;;5091155;28;20437;-64
2022/05/16 11:38:33;;;;;;;13.88;3.95;;;29.60;31.00;;;;;;5088767;28;20069;-65
2022/05/16 11:41:20;;;;;;;9.18;3.38;;;29.70;31.00;;;;;;5087526;28;20020;-66
2022/05/16 11:44:05;;;;;;;11.30;3.90;;;29.80;31.00;;;;;;5085746;28;20070;-67
2022/05/16 11:46:38;;;;;;;19.23;4.95;;;29.80;30.60;;;;;;5077298;28;20067;-65
2022/05/16 11:49:38;;;;;;;11.37;4.23;;;29.80;30.80;;;;;;5060557;28;20473;-65
2022/05/16 11:52:04;;;;;;;12.60;4.68;;;30.00;30.90;;;;;;5088128;28;20352;-65
2022/05/16 11:54:36;;;;;;;11.55;4.40;;;30.10;30.50;;;;;;5070194;28;20032;-64
2022/05/16 12:02:48;;;;;;;11.65;4.00;;;29.90;30.50;;;;;;5075061;28;20043;-66
2022/05/16 12:05:31;;;;;;;15.27;4.70;;;29.80;30.90;;;;;;5085758;28;20035;-64
2022/05/16 12:08:12;;;;;;;12.82;4.07;;;29.70;31.00;;;;;;5081906;28;20078;-66
2022/05/16 12:11:02;;;;;;;18.33;4.93;;;30.00;31.00;;;;;;5086141;28;20024;-68
2022/05/16 12:13:34;;;;;;;13.20;4.80;;;30.00;31.30;;;;;;5073864;28;20029;-65
2022/05/16 12:16:12;;;;;;;11.52;4.40;;;30.10;30.70;;;;;;5088123;28;20027;-66
2022/05/16 12:18:40;;;;;;;13.82;3.88;;;30.20;30.80;;;;;;5068118;28;20036;-64
2022/05/16 12:21:19;;;;;;;23.90;6.38;;;30.20;30.40;;;;;;5070998;28;20020;-66
2022/05/16 12:23:52;;;;;;;15.75;4.35;;;30.30;31.00;;;;;;5090420;28;20016;-65
2022/05/16 12:26:26;;;;;;;10.88;3.63;;;30.40;30.70;;;;;;5071564;28;20094;-66
2022/05/16 12:29:11;;;;;;;12.68;3.80;;;30.40;30.40;;;;;;5090121;28;20028;-64
2022/05/16 12:31:49;;;;;;;15.52;3.75;;;30.40;30.30;;;;;;5090250;28;20032;-66
2022/05/16 12:34:38;;;;;;;13.20;3.95;;;30.60;30.40;;;;;;5087934;28;20017;-63
2022/05/16 12:37:13;;;;;;;13.40;4.20;;;30.70;30.90;;;;;;5086000;28;20112;-65
2022/05/16 12:39:54;;;;;;;10.10;3.33;;;31.00;30.30;;;;;;5081480;28;20066;-64
2022/05/16 12:42:29;;;;;;;23.38;4.45;;;31.30;29.90;;;;;;5079807;28;20353;-67
2022/05/16 12:44:59;;;;;;;9.15;3.90;;;31.50;29.90;;;;;;5085752;28;20479;-65
2022/05/16 12:47:37;;;;;;;10.05;4.15;;;31.50;29.80;;;;;;5085755;28;20059;-65
2022/05/16 12:50:36;;;;;;;16.30;4.30;;;31.50;30.00;;;;;;5061620;28;20111;-64
2022/05/16 12:53:08;;;;;;;9.35;3.35;;;31.40;29.80;;;;;;5080758;28;20036;-65
2022/05/16 12:55:59;;;;;;;12.63;4.18;;;31.40;29.90;;;;;;5067161;28;20035;-65
2022/05/16 12:58:28;;;;;;;12.90;4.47;;;31.50;29.90;;;;;;5081569;28;20085;-67
2022/05/16 13:01:13;;;;;;;18.58;4.53;;;31.50;30.00;;;;;;5080136;28;20024;-65
2022/05/16 13:03:54;;;;;;;27.10;5.90;;;31.50;30.10;;;;;;5078548;28;20362;-66
2022/05/16 13:06:32;;;;;;;9.98;4.53;;;31.50;30.20;;;;;;5078912;28;20024;-67
2022/05/16 13:09:22;;;;;;;11.27;4.95;;;31.50;30.00;;;;;;5080938;28;20423;-67
2022/05/16 13:12:26;;;;;;;10.95;3.78;;;31.40;30.90;;;;;;5083012;28;20031;-65
2022/05/16 13:15:10;;;;;;;13.18;3.70;;;31.30;30.20;;;;;;5064201;28;20128;-66
2022/05/16 13:17:40;;;;;;;11.77;3.75;;;31.20;30.40;;;;;;5067872;28;20028;-65
2022/05/16 13:20:18;;;;;;;18.83;4.85;;;31.10;30.60;;;;;;5084802;28;20021;-64
2022/05/16 13:22:48;;;;;;;14.27;4.38;;;31.20;30.60;;;;;;5068676;28;20108;-66
2022/05/16 13:25:15;;;;;;;10.07;4.15;;;31.20;30.60;;;;;;5059598;28;20032;-61
2022/05/16 13:30:27;;;;;;;12.15;3.75;;;30.80;31.00;;;;;;5088974;28;20031;-64
2022/05/16 13:32:53;;;;;;;11.02;3.78;;;30.60;31.00;;;;;;5087033;28;20038;-66
2022/05/16 13:35:35;;;;;;;22.50;4.95;;;30.60;31.20;;;;;;5087072;28;20032;-65
2022/05/16 13:38:05;;;;;;;11.57;4.03;;;30.70;31.50;;;;;;5075952;28;20033;-62
2022/05/16 13:40:39;;;;;;;12.20;4.57;;;31.00;30.90;;;;;;5082588;28;20043;-64
2022/05/16 13:43:19;;;;;;;22.38;5.30;;;31.40;30.30;;;;;;5059525;28;20086;-64